Time;durP1;ratioP1;P1;durP2;ratioP2;P2;SDS_P1;SDS_P2;PMS_P1;PMS_P2;Temp;Humidity;BMP_temperature;BMP_pressure;BME280_temperature;BME280_humidity;BME280_pressure;Samples;Min_cycle;Max_cycle;Signal;HPM_P1;HPM_P2
2024/01/15 00:02:18;;;;;;;5.72;4.78;;;3.70;73.50;;;;;;5116748;28;20043;-75
2024/01/15 00:04:44;;;;;;;4.78;4.25;;;3.80;73.60;;;;;;5117341;28;20068;-75
2024/01/15 00:07:10;;;;;;;6.40;4.47;;;3.70;73.50;;;;;;5116790;28;20067;-75
2024/01/15 00:09:36;;;;;;;5.95;4.82;;;3.70;73.50;;;;;;5116981;28;20063;-75
2024/01/15 00:12:02;;;;;;;5.47;4.32;;;3.70;73.50;;;;;;5098794;28;20473;-74
2024/01/15 00:14:28;;;;;;;6.20;5.10;;;3.70;73.50;;;;;;5109651;27;20031;-76
2024/01/15 00:16:55;;;;;;;6.63;5.25;;;3.70;73.50;;;;;;5099690;28;20072;-75
2024/01/15 00:19:22;;;;;;;5.63;4.40;;;3.80;73.60;;;;;;5129936;27;20027;-74
2024/01/15 00:21:47;;;;;;;6.00;4.60;;;3.70;73.50;;;;;;5118781;27;20388;-75
2024/01/15 00:24:14;;;;;;;6.00;5.00;;;3.80;73.50;;;;;;5132327;27;20020;-75
2024/01/15 00:26:40;;;;;;;6.10;4.55;;;3.80;73.50;;;;;;5098217;28;20043;-75
2024/01/15 00:29:09;;;;;;;5.68;4.80;;;3.80;73.50;;;;;;5116367;28;20103;-75
2024/01/15 00:31:35;;;;;;;5.95;4.50;;;3.80;73.50;;;;;;5098620;28;20027;-75
2024/01/15 00:34:01;;;;;;;6.18;4.75;;;3.70;73.40;;;;;;5098326;28;20386;-75
2024/01/15 00:36:27;;;;;;;5.60;4.53;;;3.80;73.50;;;;;;5121513;27;20023;-75
2024/01/15 00:38:53;;;;;;;5.85;4.47;;;3.80;73.50;;;;;;5118430;27;20096;-75
2024/01/15 00:41:19;;;;;;;5.53;4.55;;;3.70;73.50;;;;;;5136685;27;20067;-75
2024/01/15 00:43:45;;;;;;;5.93;4.93;;;3.80;73.50;;;;;;5136664;27;20096;-74
2024/01/15 00:46:11;;;;;;;6.30;4.90;;;3.70;73.50;;;;;;5118945;27;20023;-74
2024/01/15 00:48:37;;;;;;;5.90;4.43;;;3.80;73.50;;;;;;5118219;27;20023;-76
2024/01/15 00:51:04;;;;;;;6.28;4.75;;;3.80;73.50;;;;;;5114122;28;20393;-75
2024/01/15 00:53:30;;;;;;;6.43;4.45;;;3.80;73.50;;;;;;5117099;27;20114;-76
2024/01/15 00:55:56;;;;;;;5.43;4.43;;;3.80;73.50;;;;;;5116024;28;20020;-76
2024/01/15 00:58:22;;;;;;;6.18;4.68;;;3.80;73.50;;;;;;5096737;28;20028;-75
2024/01/15 01:00:48;;;;;;;5.38;4.55;;;3.80;73.50;;;;;;5115291;28;20042;-75
2024/01/15 01:03:14;;;;;;;5.57;4.30;;;3.80;73.50;;;;;;5116302;27;20028;-75
2024/01/15 01:05:39;;;;;;;5.70;4.63;;;3.80;73.50;;;;;;5112504;27;20023;-75
2024/01/15 01:08:05;;;;;;;5.13;4.25;;;3.80;73.50;;;;;;5122061;27;20134;-74
2024/01/15 01:10:31;;;;;;;6.30;5.13;;;3.80;73.40;;;;;;5116014;28;20028;-75
2024/01/15 01:12:56;;;;;;;5.28;4.15;;;3.80;73.50;;;;;;5131897;27;20023;-75
2024/01/15 01:15:22;;;;;;;5.03;4.18;;;3.80;73.40;;;;;;5118527;27;20024;-74
2024/01/15 01:17:48;;;;;;;5.88;4.75;;;3.80;73.40;;;;;;5125514;27;20024;-77
2024/01/15 01:20:15;;;;;;;5.65;4.70;;;3.80;73.40;;;;;;5102975;27;20031;-76
2024/01/15 01:22:41;;;;;;;4.95;4.18;;;3.80;73.50;;;;;;5117880;27;20039;-74
2024/01/15 01:25:07;;;;;;;5.53;4.28;;;3.80;73.40;;;;;;5126649;27;20031;-74
2024/01/15 01:27:32;;;;;;;5.13;4.40;;;3.80;73.50;;;;;;5096881;28;20028;-76
2024/01/15 01:29:58;;;;;;;5.78;4.40;;;3.80;73.40;;;;;;5115999;28;20047;-74
2024/01/15 01:32:24;;;;;;;6.07;4.80;;;3.80;73.40;;;;;;5098149;28;20028;-76
2024/01/15 01:34:49;;;;;;;5.10;4.32;;;3.80;73.40;;;;;;5125175;27;20038;-75
2024/01/15 01:37:16;;;;;;;4.80;4.15;;;3.80;73.40;;;;;;5117532;27;20103;-75
2024/01/15 01:39:42;;;;;;;5.78;4.32;;;3.80;73.40;;;;;;5100864;27;20034;-75
2024/01/15 01:42:08;;;;;;;5.30;4.35;;;3.80;73.40;;;;;;5116907;27;20059;-74
2024/01/15 01:44:34;;;;;;;5.63;4.40;;;3.80;73.40;;;;;;5113582;28;20500;-74
2024/01/15 01:47:01;;;;;;;5.22;4.30;;;3.80;73.40;;;;;;5115091;27;20128;-74
2024/01/15 01:49:29;;;;;;;5.85;4.63;;;3.80;73.40;;;;;;5117100;27;20027;-76
2024/01/15 01:52:01;;;;;;;5.00;4.07;;;3.80;73.40;;;;;;5135415;27;20106;-75
2024/01/15 01:54:31;;;;;;;4.95;4.45;;;3.80;73.40;;;;;;5117153;27;20054;-76
2024/01/15 01:56:57;;;;;;;5.10;4.15;;;3.80;73.40;;;;;;5117047;27;20031;-74
2024/01/15 01:59:27;;;;;;;4.55;3.85;;;3.80;73.40;;;;;;5135783;27;20436;-75
2024/01/15 02:01:54;;;;;;;5.03;4.18;;;3.80;73.40;;;;;;5135470;27;20058;-75
2024/01/15 02:04:21;;;;;;;5.40;4.20;;;3.80;73.40;;;;;;5117168;27;20072;-75
2024/01/15 02:06:48;;;;;;;4.97;4.25;;;3.80;73.40;;;;;;5135265;27;20458;-75
2024/01/15 02:09:15;;;;;;;4.68;4.18;;;3.80;73.40;;;;;;5135329;27;20364;-74
2024/01/15 02:11:42;;;;;;;5.20;4.18;;;3.80;73.40;;;;;;5129451;27;20046;-74
2024/01/15 02:14:08;;;;;;;5.30;4.30;;;3.80;73.40;;;;;;5079547;28;20300;-75
2024/01/15 02:16:34;;;;;;;4.88;4.30;;;3.80;73.30;;;;;;5118012;27;20030;-74
2024/01/15 02:18:59;;;;;;;5.10;4.32;;;3.80;73.40;;;;;;5125781;27;20094;-75
2024/01/15 02:21:28;;;;;;;4.30;3.90;;;3.80;73.40;;;;;;5121962;27;20114;-75
2024/01/15 02:23:57;;;;;;;5.60;4.40;;;3.80;73.40;;;;;;5118741;27;20103;-75
2024/01/15 02:26:22;;;;;;;4.93;4.18;;;3.90;73.40;;;;;;5081154;27;20035;-74
2024/01/15 02:28:50;;;;;;;5.45;4.38;;;3.80;73.30;;;;;;5116528;27;20031;-74
2024/01/15 02:31:16;;;;;;;4.65;4.00;;;3.90;73.40;;;;;;5116476;27;20033;-75
2024/01/15 02:33:43;;;;;;;5.72;4.43;;;3.90;73.40;;;;;;5134763;27;20024;-74
2024/01/15 02:36:09;;;;;;;4.70;3.83;;;3.80;73.30;;;;;;5116136;27;20045;-76
2024/01/15 02:38:35;;;;;;;4.72;4.10;;;3.90;73.40;;;;;;5116392;27;20134;-75
2024/01/15 02:41:00;;;;;;;4.95;4.30;;;3.90;73.40;;;;;;5103133;28;20134;-75
2024/01/15 02:43:26;;;;;;;4.93;4.00;;;3.90;73.40;;;;;;5116638;28;20031;-74
2024/01/15 02:45:52;;;;;;;5.35;4.20;;;3.90;73.40;;;;;;5134028;28;20038;-75
2024/01/15 02:48:17;;;;;;;5.32;4.18;;;3.90;73.40;;;;;;5116497;28;20028;-74
2024/01/15 02:50:43;;;;;;;5.20;4.15;;;3.90;73.40;;;;;;5134751;27;20031;-78
2024/01/15 02:53:09;;;;;;;4.30;3.80;;;3.90;73.40;;;;;;5116392;27;20034;-75
2024/01/15 02:55:34;;;;;;;4.95;3.85;;;3.90;73.40;;;;;;5134513;28;20051;-74
2024/01/15 02:58:00;;;;;;;5.00;4.32;;;3.90;73.40;;;;;;5109220;28;20673;-75
2024/01/15 03:00:26;;;;;;;4.53;3.75;;;3.90;73.40;;;;;;5096687;28;20449;-75
2024/01/15 03:02:54;;;;;;;5.18;4.50;;;3.90;73.30;;;;;;5078334;28;20028;-76
2024/01/15 03:05:20;;;;;;;4.75;4.10;;;3.90;73.30;;;;;;5116193;28;20362;-76
2024/01/15 03:07:45;;;;;;;5.18;4.00;;;3.90;73.40;;;;;;5119087;27;20045;-76
2024/01/15 03:10:11;;;;;;;4.80;4.18;;;3.90;73.30;;;;;;5097604;28;20393;-76
2024/01/15 03:12:37;;;;;;;5.32;4.13;;;3.90;73.30;;;;;;5114050;28;20035;-77
2024/01/15 03:15:03;;;;;;;4.57;4.10;;;3.90;73.30;;;;;;5097143;28;20027;-78
2024/01/15 03:17:28;;;;;;;4.72;4.03;;;3.90;73.30;;;;;;5116047;28;20043;-76
2024/01/15 03:19:54;;;;;;;4.38;3.83;;;3.90;73.30;;;;;;5101746;28;20020;-77
2024/01/15 03:22:20;;;;;;;5.60;4.07;;;3.90;73.30;;;;;;5113756;28;20157;-76
2024/01/15 03:24:45;;;;;;;5.43;4.10;;;3.90;73.30;;;;;;5099027;28;20043;-76
2024/01/15 03:27:11;;;;;;;5.18;4.10;;;3.90;73.30;;;;;;5126543;27;20031;-77
2024/01/15 03:29:37;;;;;;;4.53;3.72;;;3.90;73.30;;;;;;5099093;28;20030;-75
2024/01/15 03:32:02;;;;;;;4.90;4.28;;;3.90;73.30;;;;;;5099053;28;20027;-76
2024/01/15 03:34:28;;;;;;;4.72;3.97;;;3.90;73.30;;;;;;5117949;27;20038;-75
2024/01/15 03:36:54;;;;;;;5.20;4.43;;;3.90;73.30;;;;;;5098801;28;20024;-75
2024/01/15 03:39:19;;;;;;;4.80;4.20;;;3.90;73.30;;;;;;5119210;27;20034;-75
2024/01/15 03:41:45;;;;;;;4.45;4.00;;;3.90;73.30;;;;;;5117213;28;20038;-76
2024/01/15 03:44:11;;;;;;;4.55;3.90;;;3.90;73.30;;;;;;5119757;27;20027;-76
2024/01/15 03:46:36;;;;;;;5.25;4.07;;;3.90;73.30;;;;;;5106635;27;20027;-76
2024/01/15 03:49:02;;;;;;;5.65;4.38;;;4.00;73.30;;;;;;5104197;27;20110;-75
2024/01/15 03:51:28;;;;;;;6.10;4.50;;;4.00;73.30;;;;;;5118974;27;20379;-76
2024/01/15 03:53:53;;;;;;;4.10;3.70;;;3.90;73.30;;;;;;5101092;27;20030;-74
2024/01/15 03:56:19;;;;;;;4.85;3.92;;;4.00;73.30;;;;;;5118035;27;20024;-75
2024/01/15 03:58:45;;;;;;;4.38;3.75;;;4.00;73.30;;;;;;5116845;27;20080;-73
2024/01/15 04:01:10;;;;;;;5.25;4.60;;;4.00;73.30;;;;;;5099214;28;20126;-72
2024/01/15 04:03:36;;;;;;;5.03;4.20;;;4.00;73.30;;;;;;5109554;28;20076;-73
2024/01/15 04:06:03;;;;;;;4.38;3.97;;;4.00;73.90;;;;;;5116854;28;20031;-75
2024/01/15 04:08:29;;;;;;;6.47;4.38;;;4.00;73.30;;;;;;5098285;27;20047;-74
2024/01/15 04:10:55;;;;;;;4.78;3.80;;;4.00;73.30;;;;;;5122398;27;20506;-71
2024/01/15 04:13:21;;;;;;;5.18;3.95;;;3.90;73.20;;;;;;5124534;27;20127;-71
2024/01/15 04:15:47;;;;;;;5.95;4.20;;;4.00;73.30;;;;;;5107629;27;20023;-71
2024/01/15 04:18:13;;;;;;;5.00;4.20;;;4.00;73.30;;;;;;5108638;27;20050;-72
2024/01/15 04:20:39;;;;;;;5.47;4.20;;;4.00;73.30;;;;;;5107485;28;20115;-72
2024/01/15 04:23:05;;;;;;;4.20;3.65;;;4.00;73.20;;;;;;5100212;27;20024;-73
2024/01/15 04:25:31;;;;;;;4.72;3.80;;;4.00;73.30;;;;;;5112737;28;20139;-70
2024/01/15 04:27:56;;;;;;;4.45;3.85;;;4.00;73.30;;;;;;5129277;27;20473;-71
2024/01/15 04:30:22;;;;;;;4.75;3.85;;;4.00;73.30;;;;;;5112296;27;20027;-72
2024/01/15 04:32:48;;;;;;;4.75;3.95;;;4.00;73.20;;;;;;5100107;28;20388;-73
2024/01/15 04:35:14;;;;;;;4.55;3.88;;;4.00;73.20;;;;;;5118262;27;20027;-72
2024/01/15 04:37:40;;;;;;;4.15;3.75;;;4.00;73.20;;;;;;5112494;27;20027;-73
2024/01/15 04:40:07;;;;;;;4.28;3.78;;;4.00;73.30;;;;;;5130105;27;20023;-72
2024/01/15 04:42:32;;;;;;;5.07;4.20;;;4.00;73.80;;;;;;5116086;28;20039;-73
2024/01/15 04:44:58;;;;;;;4.82;3.88;;;4.00;73.20;;;;;;5129778;27;20075;-73
2024/01/15 04:47:24;;;;;;;5.10;4.22;;;4.00;73.30;;;;;;5136766;27;20038;-72
2024/01/15 04:49:50;;;;;;;4.78;4.00;;;4.00;73.20;;;;;;5118330;27;20023;-73
2024/01/15 04:52:15;;;;;;;4.78;4.00;;;4.00;73.20;;;;;;5117745;27;20027;-73
2024/01/15 04:54:41;;;;;;;5.15;4.10;;;4.00;73.20;;;;;;5117739;27;20496;-73
2024/01/15 04:57:07;;;;;;;5.03;3.85;;;4.00;73.20;;;;;;5133998;27;20469;-71
2024/01/15 04:59:32;;;;;;;4.40;3.83;;;4.00;73.20;;;;;;5111577;27;20131;-73
2024/01/15 05:01:58;;;;;;;4.60;4.10;;;4.00;73.20;;;;;;5129765;27;20042;-74
2024/01/15 05:04:26;;;;;;;4.45;3.70;;;4.00;73.20;;;;;;5117393;27;20055;-72
2024/01/15 05:06:53;;;;;;;5.13;4.03;;;4.00;73.20;;;;;;5135406;27;20101;-74
2024/01/15 05:09:18;;;;;;;4.65;4.00;;;4.00;73.20;;;;;;5135484;27;20027;-72
2024/01/15 05:11:44;;;;;;;4.70;4.13;;;4.00;73.10;;;;;;5114163;28;20487;-72
2024/01/15 05:14:10;;;;;;;4.68;4.05;;;4.00;73.10;;;;;;5115577;28;20350;-74
2024/01/15 05:16:38;;;;;;;4.28;3.80;;;4.00;73.20;;;;;;5113034;28;20415;-72
2024/01/15 05:19:04;;;;;;;4.60;4.07;;;4.00;73.10;;;;;;5114498;28;20077;-76
2024/01/15 05:21:29;;;;;;;4.45;4.00;;;4.00;73.10;;;;;;5115927;27;20035;-71
2024/01/15 05:23:55;;;;;;;4.07;3.67;;;4.00;73.20;;;;;;5117691;27;20027;-72
2024/01/15 05:26:21;;;;;;;5.25;3.75;;;4.00;73.10;;;;;;5136338;27;20038;-72
2024/01/15 05:28:46;;;;;;;5.63;4.22;;;4.00;73.10;;;;;;5117476;27;20027;-72
2024/01/15 05:31:12;;;;;;;4.68;4.10;;;4.00;73.10;;;;;;5134393;27;20023;-73
2024/01/15 05:33:38;;;;;;;4.95;4.15;;;4.00;73.10;;;;;;5115414;27;20023;-72
2024/01/15 05:36:04;;;;;;;4.53;3.83;;;4.00;73.10;;;;;;5106925;28;20035;-72
2024/01/15 05:38:29;;;;;;;5.10;3.92;;;4.10;73.20;;;;;;5098268;27;20038;-72
2024/01/15 05:40:55;;;;;;;4.85;4.07;;;4.10;73.20;;;;;;5104173;27;20028;-76
2024/01/15 05:43:21;;;;;;;4.47;3.78;;;4.10;73.20;;;;;;5106235;28;20031;-74
2024/01/15 05:45:47;;;;;;;5.05;4.47;;;4.10;73.20;;;;;;5110128;27;20075;-73
2024/01/15 05:48:12;;;;;;;5.93;4.53;;;4.10;73.10;;;;;;5111224;27;20024;-73
2024/01/15 05:50:38;;;;;;;4.70;3.70;;;4.10;73.10;;;;;;5107370;27;20464;-74
2024/01/15 05:53:04;;;;;;;4.97;4.05;;;4.10;73.10;;;;;;5102036;27;20030;-75
2024/01/15 05:55:30;;;;;;;4.72;3.60;;;4.10;73.10;;;;;;5097359;28;20023;-74
2024/01/15 05:57:55;;;;;;;4.65;3.85;;;4.10;73.10;;;;;;5096270;28;20106;-75
2024/01/15 06:00:21;;;;;;;4.93;3.80;;;4.10;73.10;;;;;;5095578;28;20027;-74
2024/01/15 06:02:47;;;;;;;4.72;4.07;;;4.10;73.10;;;;;;5114761;28;20118;-74
2024/01/15 06:05:13;;;;;;;4.78;4.07;;;4.10;73.10;;;;;;5114730;28;20024;-74
2024/01/15 06:07:39;;;;;;;5.32;4.00;;;4.10;73.10;;;;;;5114352;28;20505;-74
2024/01/15 06:10:05;;;;;;;4.20;3.75;;;4.10;73.10;;;;;;5096244;28;20453;-74
2024/01/15 06:12:32;;;;;;;4.80;4.30;;;4.10;73.10;;;;;;5097976;28;20027;-74
2024/01/15 06:14:58;;;;;;;4.70;4.18;;;4.20;73.10;;;;;;5096316;28;20080;-73
2024/01/15 06:17:23;;;;;;;5.10;4.32;;;4.20;73.10;;;;;;5102203;27;20031;-73
2024/01/15 06:19:49;;;;;;;4.72;3.95;;;4.20;73.10;;;;;;5117324;27;20096;-74
2024/01/15 06:22:15;;;;;;;4.90;4.40;;;4.10;73.00;;;;;;5116771;27;20477;-73
2024/01/15 06:24:42;;;;;;;4.47;3.95;;;4.20;73.10;;;;;;5135477;27;20033;-73
2024/01/15 06:27:11;;;;;;;4.75;4.00;;;4.20;73.00;;;;;;5135280;27;20112;-74
2024/01/15 06:29:38;;;;;;;4.85;3.90;;;4.20;73.00;;;;;;5134519;27;20110;-74
2024/01/15 06:32:04;;;;;;;5.18;4.40;;;4.30;73.10;;;;;;5112553;28;20024;-74
2024/01/15 06:34:30;;;;;;;5.93;4.47;;;4.30;73.00;;;;;;5113032;28;20031;-74
2024/01/15 06:36:55;;;;;;;4.88;4.10;;;4.30;73.00;;;;;;5113228;28;20031;-74
2024/01/15 06:39:21;;;;;;;4.38;3.80;;;4.30;73.00;;;;;;5112968;28;20031;-74
2024/01/15 06:41:47;;;;;;;4.35;3.83;;;4.30;72.90;;;;;;5112666;28;20042;-74
2024/01/15 06:44:13;;;;;;;5.70;4.30;;;4.30;72.90;;;;;;5112826;28;20048;-76
2024/01/15 06:46:42;;;;;;;5.78;4.00;;;4.30;72.80;;;;;;5113564;28;20020;-75
2024/01/15 06:49:08;;;;;;;4.97;4.25;;;4.40;72.90;;;;;;5131510;28;20465;-74
2024/01/15 06:51:35;;;;;;;4.47;4.00;;;4.40;72.80;;;;;;5116111;28;20110;-73
2024/01/15 06:54:01;;;;;;;4.47;3.85;;;4.40;72.80;;;;;;5114631;28;20119;-73
2024/01/15 06:56:27;;;;;;;4.55;3.90;;;4.50;72.80;;;;;;5134508;27;20046;-75
2024/01/15 06:58:53;;;;;;;6.28;4.45;;;4.50;72.80;;;;;;5117398;27;20027;-75
2024/01/15 07:01:18;;;;;;;5.35;4.28;;;4.50;72.70;;;;;;5118188;27;20439;-74
2024/01/15 07:03:44;;;;;;;4.38;3.85;;;4.60;72.80;;;;;;5120023;27;20023;-74
2024/01/15 07:06:11;;;;;;;4.35;3.67;;;4.60;72.70;;;;;;5139122;27;20038;-75
2024/01/15 07:08:37;;;;;;;5.47;4.50;;;4.60;72.70;;;;;;5138480;27;20039;-75
2024/01/15 07:11:06;;;;;;;4.18;3.75;;;4.70;72.70;;;;;;5090256;28;20035;-77
2024/01/15 07:13:32;;;;;;;5.10;3.92;;;4.70;72.90;;;;;;5117914;28;20024;-74
2024/01/15 07:15:58;;;;;;;4.38;3.78;;;4.70;72.50;;;;;;5091800;28;20027;-75
2024/01/15 07:18:24;;;;;;;4.28;3.88;;;4.80;72.50;;;;;;5097353;28;20405;-75
2024/01/15 07:20:50;;;;;;;5.28;4.00;;;4.80;72.40;;;;;;5079140;28;20058;-75
2024/01/15 07:23:17;;;;;;;4.68;4.07;;;4.90;72.40;;;;;;5079349;28;20048;-75
2024/01/15 07:25:43;;;;;;;4.80;4.00;;;4.90;72.30;;;;;;5079024;28;20027;-75
2024/01/15 07:28:09;;;;;;;4.90;4.10;;;4.90;72.30;;;;;;5114039;27;20089;-75
2024/01/15 07:30:35;;;;;;;6.00;4.28;;;4.90;72.30;;;;;;5118521;27;20031;-74
2024/01/15 07:33:00;;;;;;;5.25;4.45;;;5.00;72.20;;;;;;5138180;27;20414;-74
2024/01/15 07:35:26;;;;;;;5.63;4.43;;;5.00;72.20;;;;;;5138319;27;20072;-75
2024/01/15 07:37:52;;;;;;;4.63;3.67;;;5.00;72.20;;;;;;5120230;27;20026;-73
2024/01/15 07:40:17;;;;;;;5.05;3.80;;;5.00;72.10;;;;;;5094825;27;20032;-75
2024/01/15 07:42:43;;;;;;;4.72;4.00;;;5.10;72.10;;;;;;5110981;28;20043;-75
2024/01/15 07:45:11;;;;;;;5.10;4.00;;;5.00;72.00;;;;;;5117734;28;20028;-72
2024/01/15 07:47:37;;;;;;;4.97;4.28;;;5.10;72.00;;;;;;5114749;27;20030;-74
2024/01/15 07:50:04;;;;;;;5.00;3.92;;;5.10;72.00;;;;;;5101177;27;20480;-73
2024/01/15 07:52:30;;;;;;;5.72;4.47;;;5.10;71.90;;;;;;5117695;28;20038;-73
2024/01/15 07:54:56;;;;;;;4.65;3.92;;;5.20;72.00;;;;;;5102596;28;20031;-74
2024/01/15 07:57:22;;;;;;;5.80;4.47;;;5.20;71.90;;;;;;5112432;27;20460;-72
2024/01/15 07:59:48;;;;;;;4.90;3.92;;;5.20;71.90;;;;;;5137773;27;20031;-72
2024/01/15 08:02:14;;;;;;;5.13;4.50;;;5.20;71.90;;;;;;5118964;27;20504;-73
2024/01/15 08:04:40;;;;;;;5.13;4.07;;;5.20;71.90;;;;;;5115460;27;20041;-71
2024/01/15 08:07:07;;;;;;;5.30;3.92;;;5.20;71.90;;;;;;5112016;28;23293;-71
2024/01/15 08:09:33;;;;;;;4.82;4.28;;;5.20;71.80;;;;;;5106149;28;20042;-71
2024/01/15 08:12:00;;;;;;;6.00;4.13;;;5.30;71.90;;;;;;5129716;27;20454;-72
2024/01/15 08:14:25;;;;;;;5.72;4.20;;;5.30;71.80;;;;;;5132429;27;20027;-71
2024/01/15 08:16:51;;;;;;;4.93;4.07;;;5.30;71.70;;;;;;5116838;28;20042;-72
2024/01/15 08:19:17;;;;;;;4.47;3.83;;;5.40;71.70;;;;;;5115364;28;20024;-70
2024/01/15 08:21:42;;;;;;;4.57;3.92;;;5.40;71.70;;;;;;5116547;28;20036;-71
2024/01/15 08:24:08;;;;;;;4.70;4.15;;;5.40;71.70;;;;;;5116624;28;20373;-71
2024/01/15 08:26:34;;;;;;;4.80;4.05;;;5.40;71.60;;;;;;5116423;28;20480;-71
2024/01/15 08:29:00;;;;;;;4.57;4.05;;;5.40;71.60;;;;;;5117441;27;20020;-69
2024/01/15 08:31:25;;;;;;;4.60;4.10;;;5.40;71.50;;;;;;5115221;28;20084;-73
2024/01/15 08:33:51;;;;;;;5.40;4.40;;;5.50;71.50;;;;;;5116789;27;20023;-75
2024/01/15 08:36:17;;;;;;;5.53;4.32;;;5.50;71.50;;;;;;5118071;27;20031;-77
2024/01/15 08:38:43;;;;;;;5.88;4.03;;;5.50;71.90;;;;;;5117507;27;20077;-78
2024/01/15 08:41:09;;;;;;;4.82;3.70;;;5.80;82.30;;;;;;5121181;27;20534;-77
2024/01/15 08:43:35;;;;;;;5.22;3.85;;;6.40;79.70;;;;;;5136011;27;20049;-74
2024/01/15 08:46:01;;;;;;;5.40;3.70;;;6.70;77.70;;;;;;5118324;27;20023;-77
2024/01/15 08:48:27;;;;;;;4.80;3.60;;;6.90;76.90;;;;;;5116989;27;20035;-76
2024/01/15 08:50:54;;;;;;;4.07;3.42;;;6.90;76.50;;;;;;5114964;28;20374;-77
2024/01/15 08:53:20;;;;;;;4.10;3.40;;;6.90;76.30;;;;;;5117022;27;20381;-76
2024/01/15 08:55:45;;;;;;;4.47;3.47;;;6.90;75.90;;;;;;5122769;27;20027;-77
2024/01/15 08:58:11;;;;;;;5.55;3.63;;;6.90;75.80;;;;;;5116079;28;20107;-78
2024/01/15 09:00:37;;;;;;;5.63;3.30;;;6.90;75.60;;;;;;5117807;27;20138;-78
2024/01/15 09:03:03;;;;;;;4.18;3.35;;;6.80;75.40;;;;;;5122490;27;20028;-75
2024/01/15 09:05:29;;;;;;;4.32;3.25;;;6.80;75.40;;;;;;5115819;28;20028;-77
2024/01/15 09:07:54;;;;;;;3.55;3.20;;;6.80;75.40;;;;;;5114090;28;20111;-76
2024/01/15 09:10:20;;;;;;;3.50;3.20;;;6.70;75.30;;;;;;5114520;28;20031;-77
2024/01/15 09:12:46;;;;;;;3.70;3.20;;;6.70;75.30;;;;;;5127039;27;20033;-77
2024/01/15 09:15:12;;;;;;;3.65;3.15;;;6.60;75.30;;;;;;5117996;27;20103;-77
2024/01/15 09:17:38;;;;;;;5.40;3.40;;;6.60;75.30;;;;;;5099870;28;20023;-77
2024/01/15 09:20:05;;;;;;;3.40;3.10;;;6.60;75.40;;;;;;5096493;28;20034;-78
2024/01/15 09:22:31;;;;;;;4.32;3.60;;;6.60;75.30;;;;;;5109329;27;20057;-74
2024/01/15 09:24:57;;;;;;;3.60;3.10;;;6.60;75.30;;;;;;5115980;28;20449;-76
2024/01/15 09:27:22;;;;;;;4.15;3.40;;;6.50;75.30;;;;;;5123770;27;20035;-76
2024/01/15 09:29:48;;;;;;;3.55;3.25;;;6.50;75.30;;;;;;5079085;28;20032;-75
2024/01/15 09:32:15;;;;;;;4.03;3.35;;;6.50;75.30;;;;;;5095037;28;20054;-75
2024/01/15 09:34:41;;;;;;;3.60;3.10;;;6.50;75.30;;;;;;5094952;28;20035;-76
2024/01/15 09:37:07;;;;;;;3.88;3.25;;;6.50;75.30;;;;;;5094878;28;20024;-75
2024/01/15 09:39:32;;;;;;;3.95;3.38;;;6.50;75.30;;;;;;5093655;28;20028;-76
2024/01/15 09:41:59;;;;;;;3.97;3.58;;;6.50;75.30;;;;;;5094796;28;20047;-75
2024/01/15 09:44:26;;;;;;;3.75;3.30;;;6.50;75.30;;;;;;5094812;28;20081;-75
2024/01/15 09:46:53;;;;;;;4.40;3.30;;;6.50;75.20;;;;;;5076561;28;20024;-75
2024/01/15 09:49:19;;;;;;;3.72;3.30;;;6.50;75.20;;;;;;5108367;27;20039;-75
2024/01/15 09:51:45;;;;;;;4.30;3.50;;;6.40;75.10;;;;;;5116988;27;20035;-74
2024/01/15 09:54:13;;;;;;;5.07;3.40;;;6.50;75.10;;;;;;5117568;27;20032;-75
2024/01/15 09:56:39;;;;;;;4.00;3.60;;;6.50;75.20;;;;;;5135211;27;20096;-76
2024/01/15 09:59:06;;;;;;;4.45;3.60;;;6.50;75.10;;;;;;5116783;27;20027;-75
2024/01/15 10:01:34;;;;;;;4.10;3.30;;;6.50;75.10;;;;;;5116825;27;20043;-75
2024/01/15 10:04:00;;;;;;;3.88;3.45;;;6.50;75.10;;;;;;5135143;27;20059;-75
2024/01/15 10:06:30;;;;;;;3.70;3.17;;;6.50;75.10;;;;;;5135039;27;20062;-75
2024/01/15 10:08:58;;;;;;;4.38;3.70;;;6.60;75.10;;;;;;5135143;27;20512;-74
2024/01/15 10:11:24;;;;;;;4.00;3.38;;;6.60;75.10;;;;;;5116689;27;20127;-76
2024/01/15 10:13:53;;;;;;;3.72;3.25;;;6.60;75.00;;;;;;5135005;27;20027;-75
2024/01/15 10:16:19;;;;;;;4.18;3.60;;;6.70;75.00;;;;;;5135185;27;20431;-75
2024/01/15 10:18:45;;;;;;;3.65;3.33;;;6.70;74.80;;;;;;5116548;27;20030;-76
2024/01/15 10:21:11;;;;;;;4.38;3.70;;;6.70;74.80;;;;;;5135025;27;20031;-75
2024/01/15 10:23:37;;;;;;;4.50;3.65;;;6.70;74.80;;;;;;5117253;27;20023;-75
2024/01/15 10:26:03;;;;;;;4.43;3.70;;;6.70;74.70;;;;;;5134988;27;20396;-74
2024/01/15 10:28:31;;;;;;;4.65;3.70;;;6.80;74.70;;;;;;5116066;27;20469;-75
2024/01/15 10:30:58;;;;;;;4.43;3.70;;;6.70;74.50;;;;;;5116414;27;20046;-75
2024/01/15 10:33:28;;;;;;;4.93;3.85;;;6.80;74.50;;;;;;5134786;27;20022;-75
2024/01/15 10:35:55;;;;;;;5.05;3.65;;;6.80;74.50;;;;;;5134839;27;20031;-75
2024/01/15 10:38:24;;;;;;;4.10;3.70;;;6.90;74.40;;;;;;5134985;27;20031;-75
2024/01/15 10:40:54;;;;;;;4.75;3.85;;;6.90;74.30;;;;;;5134883;27;20384;-75
2024/01/15 10:43:21;;;;;;;4.13;3.70;;;6.90;74.20;;;;;;5134888;27;20026;-75
2024/01/15 10:45:47;;;;;;;4.40;3.58;;;7.00;74.20;;;;;;5134518;27;20388;-75
2024/01/15 10:48:14;;;;;;;4.88;4.00;;;7.00;74.10;;;;;;5134420;28;20035;-74
2024/01/15 10:50:40;;;;;;;5.25;3.95;;;7.00;74.10;;;;;;5116364;28;20123;-73
2024/01/15 10:53:08;;;;;;;4.43;3.75;;;7.00;74.00;;;;;;5115973;28;20076;-76
2024/01/15 10:55:36;;;;;;;4.20;3.67;;;7.10;74.00;;;;;;5134531;27;20028;-74
2024/01/15 10:58:03;;;;;;;4.82;3.85;;;7.10;73.80;;;;;;5112254;28;20557;-75
2024/01/15 11:00:29;;;;;;;5.47;3.80;;;7.10;73.70;;;;;;5116355;28;20027;-74
2024/01/15 11:02:56;;;;;;;4.55;3.55;;;7.20;73.70;;;;;;5115972;28;20035;-74
2024/01/15 11:05:22;;;;;;;4.82;3.83;;;7.20;73.70;;;;;;5112735;28;20039;-74
2024/01/15 11:07:49;;;;;;;4.63;3.97;;;7.20;73.50;;;;;;5112692;28;20054;-75
2024/01/15 11:10:42;;;;;;;4.20;3.72;;;7.20;73.50;;;;;;5113982;28;20043;-74
2024/01/15 11:13:10;;;;;;;3.83;3.35;;;7.20;73.40;;;;;;5112858;28;20027;-73
2024/01/15 11:15:57;;;;;;;5.40;3.92;;;7.20;73.40;;;;;;5095969;28;20023;-74
2024/01/15 11:18:23;;;;;;;4.60;3.67;;;7.20;73.30;;;;;;5112496;28;20035;-72
2024/01/15 11:21:16;;;;;;;4.32;3.60;;;7.20;73.30;;;;;;5113732;28;20027;-73
2024/01/15 11:23:52;;;;;;;5.22;4.15;;;7.20;73.20;;;;;;5112992;28;20043;-74
2024/01/15 11:26:32;;;;;;;4.88;3.60;;;7.20;73.20;;;;;;5113726;28;20507;-73
2024/01/15 11:29:00;;;;;;;4.03;3.45;;;7.20;73.20;;;;;;5122393;28;20035;-73
2024/01/15 11:31:29;;;;;;;3.90;3.47;;;7.20;73.10;;;;;;5116028;28;20114;-73
2024/01/15 11:33:55;;;;;;;4.65;3.95;;;7.20;73.10;;;;;;5134411;28;20469;-74
2024/01/15 11:36:53;;;;;;;4.50;3.83;;;7.20;73.00;;;;;;5115977;28;20050;-74
2024/01/15 11:39:46;;;;;;;4.35;3.78;;;7.20;73.00;;;;;;5124774;27;20051;-73
2024/01/15 11:42:13;;;;;;;5.30;4.00;;;7.20;72.90;;;;;;5130451;27;20097;-74
2024/01/15 11:44:39;;;;;;;4.72;3.90;;;7.20;73.00;;;;;;5136863;27;20026;-74
2024/01/15 11:47:07;;;;;;;4.50;4.00;;;7.20;73.00;;;;;;5137951;27;20019;-73
2024/01/15 11:49:57;;;;;;;5.28;3.83;;;7.20;73.00;;;;;;5123729;27;20088;-74
2024/01/15 11:52:24;;;;;;;5.35;3.92;;;7.20;72.90;;;;;;5118886;27;20028;-83
2024/01/15 11:55:03;;;;;;;4.72;3.83;;;7.20;73.00;;;;;;5106362;28;20431;-76
2024/01/15 11:57:49;;;;;;;4.95;4.10;;;7.20;72.90;;;;;;5119195;27;20019;-76
2024/01/15 12:00:15;;;;;;;5.30;4.10;;;7.10;72.80;;;;;;5097385;28;20053;-74
2024/01/15 12:02:42;;;;;;;4.38;3.90;;;7.10;72.80;;;;;;5115863;28;20443;-74
2024/01/15 12:05:15;;;;;;;4.07;3.67;;;7.10;72.80;;;;;;5119683;27;20114;-78
2024/01/15 12:07:41;;;;;;;4.85;3.88;;;7.10;72.80;;;;;;5103478;27;20381;-77
2024/01/15 12:10:11;;;;;;;4.38;3.78;;;7.10;72.80;;;;;;5119442;27;20023;-80
2024/01/15 12:12:59;;;;;;;4.10;3.50;;;7.10;72.80;;;;;;5118646;27;20127;-78
2024/01/15 12:15:28;;;;;;;4.22;3.80;;;7.10;73.20;;;;;;5112373;27;20019;-82
2024/01/15 12:17:57;;;;;;;5.50;4.75;;;7.10;72.80;;;;;;5117615;27;20030;-84
2024/01/15 12:20:25;;;;;;;4.28;3.60;;;7.10;72.80;;;;;;5124516;27;20026;-79
2024/01/15 12:22:51;;;;;;;4.45;3.95;;;7.10;72.70;;;;;;5128943;27;20047;-81
2024/01/15 12:25:17;;;;;;;4.57;3.90;;;7.10;72.70;;;;;;5119032;27;20095;-81
2024/01/15 12:27:43;;;;;;;4.53;3.72;;;7.10;72.80;;;;;;5112507;27;20143;-82
2024/01/15 12:30:11;;;;;;;6.32;3.72;;;7.10;72.70;;;;;;5122313;27;20024;-87
2024/01/15 12:32:37;;;;;;;4.45;3.70;;;7.10;72.80;;;;;;5104809;27;20037;-90
2024/01/15 12:35:04;;;;;;;4.55;3.88;;;7.10;72.80;;;;;;5109006;27;20024;-82
2024/01/15 12:37:30;;;;;;;4.63;3.85;;;7.00;72.60;;;;;;5117403;27;20456;-83
2024/01/15 12:39:55;;;;;;;4.45;3.80;;;7.00;72.60;;;;;;5116700;28;20059;-82
2024/01/15 12:42:21;;;;;;;4.78;3.85;;;7.00;72.70;;;;;;5104120;28;20122;-83
2024/01/15 12:44:47;;;;;;;5.00;4.10;;;7.00;72.70;;;;;;5116546;28;20067;-86
2024/01/15 12:47:14;;;;;;;4.88;3.85;;;7.00;72.70;;;;;;5096293;28;20040;-83
2024/01/15 12:49:40;;;;;;;5.18;4.10;;;7.00;72.70;;;;;;5094848;28;20027;-84
2024/01/15 12:52:12;;;;;;;4.47;3.97;;;7.00;72.70;;;;;;5096018;28;20020;-85
2024/01/15 12:54:40;;;;;;;5.53;3.78;;;7.00;72.70;;;;;;5114613;28;20095;-84
2024/01/15 12:57:06;;;;;;;4.03;3.63;;;7.00;72.70;;;;;;5096305;27;20120;-85